sensor_id;sensor_type;location;lat;lon;timestamp;P1;durP1;ratioP1;P2;durP2;ratioP2
27728;SDS011;15126;42.186;24.340;2022-10-16T00:00:21;12.23;;;11.07;;
27728;SDS011;15126;42.186;24.340;2022-10-16T00:02:48;11.60;;;10.60;;
27728;SDS011;15126;42.186;24.340;2022-10-16T00:05:15;10.70;;;9.80;;
27728;SDS011;15126;42.186;24.340;2022-10-16T00:07:41;13.63;;;10.70;;
27728;SDS011;15126;42.186;24.340;2022-10-16T00:10:08;13.30;;;10.00;;
27728;SDS011;15126;42.186;24.340;2022-10-16T00:12:36;12.07;;;10.07;;
27728;SDS011;15126;42.186;24.340;2022-10-16T00:15:03;12.13;;;10.73;;
27728;SDS011;15126;42.186;24.340;2022-10-16T00:17:31;12.03;;;10.77;;
27728;SDS011;15126;42.186;24.340;2022-10-16T00:19:58;21.90;;;10.67;;
27728;SDS011;15126;42.186;24.340;2022-10-16T00:22:25;14.77;;;11.80;;
27728;SDS011;15126;42.186;24.340;2022-10-16T00:24:52;11.37;;;10.27;;
27728;SDS011;15126;42.186;24.340;2022-10-16T00:27:18;11.33;;;10.23;;
27728;SDS011;15126;42.186;24.340;2022-10-16T00:29:50;10.93;;;9.37;;
27728;SDS011;15126;42.186;24.340;2022-10-16T00:32:17;16.50;;;10.47;;
27728;SDS011;15126;42.186;24.340;2022-10-16T00:34:44;10.77;;;9.87;;
27728;SDS011;15126;42.186;24.340;2022-10-16T00:37:11;11.60;;;10.27;;
27728;SDS011;15126;42.186;24.340;2022-10-16T00:39:39;11.10;;;10.03;;
27728;SDS011;15126;42.186;24.340;2022-10-16T00:42:05;11.37;;;10.37;;
27728;SDS011;15126;42.186;24.340;2022-10-16T00:44:42;11.83;;;10.10;;
27728;SDS011;15126;42.186;24.340;2022-10-16T00:47:17;11.17;;;10.23;;
27728;SDS011;15126;42.186;24.340;2022-10-16T00:49:47;10.87;;;8.97;;
27728;SDS011;15126;42.186;24.340;2022-10-16T00:52:16;17.70;;;11.33;;
27728;SDS011;15126;42.186;24.340;2022-10-16T00:54:43;14.33;;;10.57;;
27728;SDS011;15126;42.186;24.340;2022-10-16T00:57:13;10.90;;;9.80;;
27728;SDS011;15126;42.186;24.340;2022-10-16T00:59:40;11.90;;;10.60;;
27728;SDS011;15126;42.186;24.340;2022-10-16T01:02:08;11.07;;;9.93;;
27728;SDS011;15126;42.186;24.340;2022-10-16T01:04:38;12.40;;;10.30;;
27728;SDS011;15126;42.186;24.340;2022-10-16T01:07:10;10.93;;;9.83;;
27728;SDS011;15126;42.186;24.340;2022-10-16T01:09:47;10.23;;;9.30;;
27728;SDS011;15126;42.186;24.340;2022-10-16T01:12:26;9.97;;;9.07;;
27728;SDS011;15126;42.186;24.340;2022-10-16T01:15:02;11.53;;;9.43;;
27728;SDS011;15126;42.186;24.340;2022-10-16T01:17:37;10.33;;;9.40;;
27728;SDS011;15126;42.186;24.340;2022-10-16T01:20:12;11.17;;;10.13;;
27728;SDS011;15126;42.186;24.340;2022-10-16T01:22:55;12.53;;;9.77;;
27728;SDS011;15126;42.186;24.340;2022-10-16T01:25:32;9.97;;;9.07;;
27728;SDS011;15126;42.186;24.340;2022-10-16T01:28:13;11.07;;;10.10;;
27728;SDS011;15126;42.186;24.340;2022-10-16T01:30:43;10.70;;;9.90;;
27728;SDS011;15126;42.186;24.340;2022-10-16T01:33:20;11.57;;;9.40;;
27728;SDS011;15126;42.186;24.340;2022-10-16T01:35:52;10.63;;;9.60;;
27728;SDS011;15126;42.186;24.340;2022-10-16T01:38:21;11.87;;;10.33;;
27728;SDS011;15126;42.186;24.340;2022-10-16T01:40:54;12.93;;;10.70;;
27728;SDS011;15126;42.186;24.340;2022-10-16T01:43:27;10.77;;;9.83;;
27728;SDS011;15126;42.186;24.340;2022-10-16T01:45:59;11.17;;;10.17;;
27728;SDS011;15126;42.186;24.340;2022-10-16T01:48:27;12.33;;;9.80;;
27728;SDS011;15126;42.186;24.340;2022-10-16T01:50:57;11.90;;;10.80;;
27728;SDS011;15126;42.186;24.340;2022-10-16T01:53:29;10.40;;;9.33;;
27728;SDS011;15126;42.186;24.340;2022-10-16T01:55:58;10.63;;;9.63;;
27728;SDS011;15126;42.186;24.340;2022-10-16T01:58:27;12.50;;;11.33;;
27728;SDS011;15126;42.186;24.340;2022-10-16T02:00:59;12.03;;;10.90;;
27728;SDS011;15126;42.186;24.340;2022-10-16T02:03:28;12.50;;;11.20;;
27728;SDS011;15126;42.186;24.340;2022-10-16T02:05:56;15.27;;;11.17;;
27728;SDS011;15126;42.186;24.340;2022-10-16T02:08:25;13.87;;;11.60;;
27728;SDS011;15126;42.186;24.340;2022-10-16T02:10:54;11.40;;;10.40;;
27728;SDS011;15126;42.186;24.340;2022-10-16T02:13:22;11.07;;;9.43;;
27728;SDS011;15126;42.186;24.340;2022-10-16T02:15:55;11.03;;;9.93;;
27728;SDS011;15126;42.186;24.340;2022-10-16T02:18:22;14.60;;;10.83;;
27728;SDS011;15126;42.186;24.340;2022-10-16T02:20:52;16.87;;;10.37;;
27728;SDS011;15126;42.186;24.340;2022-10-16T02:23:23;15.27;;;10.50;;
27728;SDS011;15126;42.186;24.340;2022-10-16T02:25:56;12.23;;;11.03;;
27728;SDS011;15126;42.186;24.340;2022-10-16T02:28:28;11.27;;;10.13;;
27728;SDS011;15126;42.186;24.340;2022-10-16T02:31:04;10.43;;;9.43;;
27728;SDS011;15126;42.186;24.340;2022-10-16T02:33:34;11.53;;;10.30;;
27728;SDS011;15126;42.186;24.340;2022-10-16T02:36:03;14.97;;;10.67;;
27728;SDS011;15126;42.186;24.340;2022-10-16T02:38:31;10.40;;;9.37;;
27728;SDS011;15126;42.186;24.340;2022-10-16T02:40:59;11.07;;;9.97;;
27728;SDS011;15126;42.186;24.340;2022-10-16T02:43:26;10.97;;;9.97;;
27728;SDS011;15126;42.186;24.340;2022-10-16T02:45:52;11.40;;;10.30;;
27728;SDS011;15126;42.186;24.340;2022-10-16T02:48:21;12.20;;;10.13;;
27728;SDS011;15126;42.186;24.340;2022-10-16T02:50:47;12.07;;;9.23;;
27728;SDS011;15126;42.186;24.340;2022-10-16T02:53:14;10.73;;;9.73;;
27728;SDS011;15126;42.186;24.340;2022-10-16T02:55:41;13.83;;;10.83;;
27728;SDS011;15126;42.186;24.340;2022-10-16T02:58:08;13.27;;;11.83;;
27728;SDS011;15126;42.186;24.340;2022-10-16T03:00:34;12.67;;;11.40;;
27728;SDS011;15126;42.186;24.340;2022-10-16T03:03:01;10.87;;;9.50;;
27728;SDS011;15126;42.186;24.340;2022-10-16T03:05:29;12.17;;;11.10;;
27728;SDS011;15126;42.186;24.340;2022-10-16T03:07:56;11.23;;;10.10;;
27728;SDS011;15126;42.186;24.340;2022-10-16T03:10:25;10.63;;;9.63;;
27728;SDS011;15126;42.186;24.340;2022-10-16T03:12:52;13.47;;;11.43;;
27728;SDS011;15126;42.186;24.340;2022-10-16T03:15:18;10.33;;;9.23;;
27728;SDS011;15126;42.186;24.340;2022-10-16T03:17:45;12.73;;;9.57;;
27728;SDS011;15126;42.186;24.340;2022-10-16T03:20:12;11.17;;;10.07;;
27728;SDS011;15126;42.186;24.340;2022-10-16T03:22:40;11.17;;;9.77;;
27728;SDS011;15126;42.186;24.340;2022-10-16T03:25:07;12.80;;;10.17;;
27728;SDS011;15126;42.186;24.340;2022-10-16T03:27:34;12.03;;;10.97;;
27728;SDS011;15126;42.186;24.340;2022-10-16T03:30:01;12.47;;;11.17;;
27728;SDS011;15126;42.186;24.340;2022-10-16T03:32:28;13.33;;;10.07;;
27728;SDS011;15126;42.186;24.340;2022-10-16T03:34:55;10.33;;;9.43;;
27728;SDS011;15126;42.186;24.340;2022-10-16T03:37:22;10.40;;;9.50;;
27728;SDS011;15126;42.186;24.340;2022-10-16T03:39:50;11.60;;;9.60;;
27728;SDS011;15126;42.186;24.340;2022-10-16T03:42:19;10.57;;;9.63;;
27728;SDS011;15126;42.186;24.340;2022-10-16T03:44:46;10.87;;;9.87;;
27728;SDS011;15126;42.186;24.340;2022-10-16T03:47:13;10.27;;;9.27;;
27728;SDS011;15126;42.186;24.340;2022-10-16T03:49:39;11.97;;;10.73;;
27728;SDS011;15126;42.186;24.340;2022-10-16T03:52:06;12.00;;;10.80;;
27728;SDS011;15126;42.186;24.340;2022-10-16T03:54:33;11.13;;;10.00;;
27728;SDS011;15126;42.186;24.340;2022-10-16T03:57:01;11.27;;;10.27;;
27728;SDS011;15126;42.186;24.340;2022-10-16T03:59:28;10.87;;;9.63;;
27728;SDS011;15126;42.186;24.340;2022-10-16T04:01:54;11.53;;;10.27;;
27728;SDS011;15126;42.186;24.340;2022-10-16T04:04:21;10.90;;;9.50;;
27728;SDS011;15126;42.186;24.340;2022-10-16T04:06:48;11.13;;;10.00;;
27728;SDS011;15126;42.186;24.340;2022-10-16T04:09:15;11.13;;;10.03;;
27728;SDS011;15126;42.186;24.340;2022-10-16T04:11:42;11.30;;;10.20;;
27728;SDS011;15126;42.186;24.340;2022-10-16T04:14:10;13.13;;;10.73;;
27728;SDS011;15126;42.186;24.340;2022-10-16T04:16:36;13.00;;;11.57;;
27728;SDS011;15126;42.186;24.340;2022-10-16T04:19:03;13.03;;;11.73;;
27728;SDS011;15126;42.186;24.340;2022-10-16T04:21:30;11.53;;;10.40;;
27728;SDS011;15126;42.186;24.340;2022-10-16T04:23:57;11.83;;;10.73;;
27728;SDS011;15126;42.186;24.340;2022-10-16T04:26:23;15.57;;;11.53;;
27728;SDS011;15126;42.186;24.340;2022-10-16T04:28:50;12.20;;;11.10;;
27728;SDS011;15126;42.186;24.340;2022-10-16T04:31:18;11.93;;;10.50;;
27728;SDS011;15126;42.186;24.340;2022-10-16T04:33:45;11.53;;;10.50;;
27728;SDS011;15126;42.186;24.340;2022-10-16T04:36:12;11.57;;;10.27;;
27728;SDS011;15126;42.186;24.340;2022-10-16T04:38:40;12.00;;;10.63;;
27728;SDS011;15126;42.186;24.340;2022-10-16T04:41:07;11.90;;;10.63;;
27728;SDS011;15126;42.186;24.340;2022-10-16T04:43:34;12.50;;;11.20;;
27728;SDS011;15126;42.186;24.340;2022-10-16T04:46:01;16.77;;;11.07;;
27728;SDS011;15126;42.186;24.340;2022-10-16T04:48:31;13.80;;;10.83;;
27728;SDS011;15126;42.186;24.340;2022-10-16T04:50:58;11.73;;;10.07;;
27728;SDS011;15126;42.186;24.340;2022-10-16T04:53:24;11.10;;;10.00;;
27728;SDS011;15126;42.186;24.340;2022-10-16T04:55:51;14.07;;;12.37;;
27728;SDS011;15126;42.186;24.340;2022-10-16T04:58:18;12.03;;;10.90;;
27728;SDS011;15126;42.186;24.340;2022-10-16T05:00:45;11.10;;;10.00;;
27728;SDS011;15126;42.186;24.340;2022-10-16T05:03:12;10.73;;;9.83;;
27728;SDS011;15126;42.186;24.340;2022-10-16T05:05:43;16.87;;;11.23;;
27728;SDS011;15126;42.186;24.340;2022-10-16T05:08:11;13.37;;;11.23;;
27728;SDS011;15126;42.186;24.340;2022-10-16T05:10:38;12.93;;;11.07;;
27728;SDS011;15126;42.186;24.340;2022-10-16T05:13:06;11.87;;;10.80;;
27728;SDS011;15126;42.186;24.340;2022-10-16T05:15:33;12.53;;;11.33;;
27728;SDS011;15126;42.186;24.340;2022-10-16T05:18:00;11.83;;;10.67;;
27728;SDS011;15126;42.186;24.340;2022-10-16T05:20:27;15.93;;;11.33;;
27728;SDS011;15126;42.186;24.340;2022-10-16T05:22:55;20.47;;;13.50;;
27728;SDS011;15126;42.186;24.340;2022-10-16T05:25:22;12.20;;;10.97;;
27728;SDS011;15126;42.186;24.340;2022-10-16T05:27:49;12.93;;;11.47;;
27728;SDS011;15126;42.186;24.340;2022-10-16T05:30:16;18.33;;;11.50;;
27728;SDS011;15126;42.186;24.340;2022-10-16T05:32:46;13.77;;;11.03;;
27728;SDS011;15126;42.186;24.340;2022-10-16T05:35:16;12.87;;;11.03;;
27728;SDS011;15126;42.186;24.340;2022-10-16T05:37:44;12.40;;;10.20;;
27728;SDS011;15126;42.186;24.340;2022-10-16T05:40:12;11.77;;;10.60;;
27728;SDS011;15126;42.186;24.340;2022-10-16T05:42:39;13.17;;;11.83;;
27728;SDS011;15126;42.186;24.340;2022-10-16T05:45:08;14.00;;;11.77;;
27728;SDS011;15126;42.186;24.340;2022-10-16T05:47:36;13.90;;;12.53;;
27728;SDS011;15126;42.186;24.340;2022-10-16T05:50:06;14.30;;;12.43;;
27728;SDS011;15126;42.186;24.340;2022-10-16T05:52:33;17.80;;;14.50;;
27728;SDS011;15126;42.186;24.340;2022-10-16T05:55:00;13.40;;;12.13;;
27728;SDS011;15126;42.186;24.340;2022-10-16T05:57:28;13.73;;;12.43;;
27728;SDS011;15126;42.186;24.340;2022-10-16T05:59:55;16.03;;;12.17;;
27728;SDS011;15126;42.186;24.340;2022-10-16T06:02:21;14.67;;;11.93;;
27728;SDS011;15126;42.186;24.340;2022-10-16T06:04:48;13.90;;;12.50;;
27728;SDS011;15126;42.186;24.340;2022-10-16T06:07:18;13.73;;;11.77;;
27728;SDS011;15126;42.186;24.340;2022-10-16T06:09:47;12.70;;;11.50;;
27728;SDS011;15126;42.186;24.340;2022-10-16T06:12:14;15.37;;;12.20;;
27728;SDS011;15126;42.186;24.340;2022-10-16T06:14:42;13.77;;;11.70;;
27728;SDS011;15126;42.186;24.340;2022-10-16T06:17:11;13.03;;;11.67;;
27728;SDS011;15126;42.186;24.340;2022-10-16T06:19:38;12.87;;;10.83;;
27728;SDS011;15126;42.186;24.340;2022-10-16T06:22:05;14.70;;;10.93;;
27728;SDS011;15126;42.186;24.340;2022-10-16T06:24:32;17.63;;;12.00;;
27728;SDS011;15126;42.186;24.340;2022-10-16T06:26:59;14.33;;;10.87;;
27728;SDS011;15126;42.186;24.340;2022-10-16T06:29:26;12.57;;;11.30;;
27728;SDS011;15126;42.186;24.340;2022-10-16T06:31:54;10.57;;;9.63;;
27728;SDS011;15126;42.186;24.340;2022-10-16T06:34:24;12.27;;;9.87;;
27728;SDS011;15126;42.186;24.340;2022-10-16T06:36:51;11.13;;;10.13;;
27728;SDS011;15126;42.186;24.340;2022-10-16T06:39:18;14.90;;;10.73;;
27728;SDS011;15126;42.186;24.340;2022-10-16T06:41:44;10.93;;;9.03;;
27728;SDS011;15126;42.186;24.340;2022-10-16T06:44:11;10.60;;;9.50;;
27728;SDS011;15126;42.186;24.340;2022-10-16T06:46:38;10.63;;;9.63;;
27728;SDS011;15126;42.186;24.340;2022-10-16T06:49:08;10.80;;;9.83;;
27728;SDS011;15126;42.186;24.340;2022-10-16T06:51:35;9.23;;;8.37;;
27728;SDS011;15126;42.186;24.340;2022-10-16T06:54:06;12.57;;;10.53;;
27728;SDS011;15126;42.186;24.340;2022-10-16T06:56:33;10.07;;;9.17;;
27728;SDS011;15126;42.186;24.340;2022-10-16T06:59:00;11.17;;;8.63;;
27728;SDS011;15126;42.186;24.340;2022-10-16T07:01:27;17.40;;;9.57;;
27728;SDS011;15126;42.186;24.340;2022-10-16T07:03:55;9.87;;;8.97;;
27728;SDS011;15126;42.186;24.340;2022-10-16T07:06:24;11.60;;;9.57;;
27728;SDS011;15126;42.186;24.340;2022-10-16T07:08:52;12.20;;;11.07;;
27728;SDS011;15126;42.186;24.340;2022-10-16T07:11:20;12.13;;;10.83;;
27728;SDS011;15126;42.186;24.340;2022-10-16T07:13:49;10.10;;;9.07;;
27728;SDS011;15126;42.186;24.340;2022-10-16T07:16:17;11.73;;;10.63;;
27728;SDS011;15126;42.186;24.340;2022-10-16T07:18:45;9.87;;;8.87;;
27728;SDS011;15126;42.186;24.340;2022-10-16T07:21:14;10.23;;;9.17;;
27728;SDS011;15126;42.186;24.340;2022-10-16T07:23:44;11.10;;;9.13;;
27728;SDS011;15126;42.186;24.340;2022-10-16T07:26:11;10.03;;;9.07;;
27728;SDS011;15126;42.186;24.340;2022-10-16T07:28:38;9.33;;;8.47;;
27728;SDS011;15126;42.186;24.340;2022-10-16T07:31:06;9.63;;;8.77;;
27728;SDS011;15126;42.186;24.340;2022-10-16T07:33:36;11.80;;;8.87;;
27728;SDS011;15126;42.186;24.340;2022-10-16T07:36:04;12.03;;;9.50;;
27728;SDS011;15126;42.186;24.340;2022-10-16T07:38:32;10.93;;;9.23;;
27728;SDS011;15126;42.186;24.340;2022-10-16T07:41:05;9.40;;;8.50;;
27728;SDS011;15126;42.186;24.340;2022-10-16T07:43:33;11.60;;;10.13;;
27728;SDS011;15126;42.186;24.340;2022-10-16T07:46:00;10.50;;;9.53;;
27728;SDS011;15126;42.186;24.340;2022-10-16T07:48:28;12.73;;;9.13;;
27728;SDS011;15126;42.186;24.340;2022-10-16T07:50:56;10.30;;;9.30;;
27728;SDS011;15126;42.186;24.340;2022-10-16T07:53:24;9.33;;;8.43;;
27728;SDS011;15126;42.186;24.340;2022-10-16T07:55:51;9.00;;;8.17;;
27728;SDS011;15126;42.186;24.340;2022-10-16T07:58:19;9.53;;;8.50;;
27728;SDS011;15126;42.186;24.340;2022-10-16T08:00:46;9.03;;;8.03;;
27728;SDS011;15126;42.186;24.340;2022-10-16T08:03:13;10.13;;;9.13;;
27728;SDS011;15126;42.186;24.340;2022-10-16T08:05:40;10.80;;;8.87;;
27728;SDS011;15126;42.186;24.340;2022-10-16T08:08:10;12.53;;;9.93;;
27728;SDS011;15126;42.186;24.340;2022-10-16T08:10:38;9.53;;;8.53;;
27728;SDS011;15126;42.186;24.340;2022-10-16T08:13:05;11.53;;;10.27;;
27728;SDS011;15126;42.186;24.340;2022-10-16T08:15:34;10.17;;;8.83;;
27728;SDS011;15126;42.186;24.340;2022-10-16T08:18:01;9.50;;;8.53;;
27728;SDS011;15126;42.186;24.340;2022-10-16T08:20:30;13.17;;;9.33;;
27728;SDS011;15126;42.186;24.340;2022-10-16T08:22:58;10.00;;;9.07;;
27728;SDS011;15126;42.186;24.340;2022-10-16T08:25:25;9.87;;;8.87;;
27728;SDS011;15126;42.186;24.340;2022-10-16T08:27:52;10.07;;;9.17;;
27728;SDS011;15126;42.186;24.340;2022-10-16T08:30:19;13.37;;;9.33;;
27728;SDS011;15126;42.186;24.340;2022-10-16T08:32:48;9.43;;;8.63;;
27728;SDS011;15126;42.186;24.340;2022-10-16T08:35:15;12.20;;;9.43;;
27728;SDS011;15126;42.186;24.340;2022-10-16T08:37:43;9.20;;;8.33;;
27728;SDS011;15126;42.186;24.340;2022-10-16T08:40:13;14.20;;;9.30;;
27728;SDS011;15126;42.186;24.340;2022-10-16T08:42:53;10.20;;;9.37;;
27728;SDS011;15126;42.186;24.340;2022-10-16T08:45:34;11.17;;;9.77;;
27728;SDS011;15126;42.186;24.340;2022-10-16T08:48:14;11.57;;;9.60;;
27728;SDS011;15126;42.186;24.340;2022-10-16T08:50:51;10.07;;;9.17;;
27728;SDS011;15126;42.186;24.340;2022-10-16T08:53:20;9.40;;;8.60;;
27728;SDS011;15126;42.186;24.340;2022-10-16T08:55:52;12.80;;;9.07;;
27728;SDS011;15126;42.186;24.340;2022-10-16T08:58:21;10.23;;;9.23;;
27728;SDS011;15126;42.186;24.340;2022-10-16T09:00:50;10.83;;;9.27;;
27728;SDS011;15126;42.186;24.340;2022-10-16T09:06:17;10.90;;;9.17;;
27728;SDS011;15126;42.186;24.340;2022-10-16T09:08:59;10.27;;;9.23;;
27728;SDS011;15126;42.186;24.340;2022-10-16T09:11:41;10.40;;;8.47;;
27728;SDS011;15126;42.186;24.340;2022-10-16T09:14:18;9.03;;;8.13;;
27728;SDS011;15126;42.186;24.340;2022-10-16T09:17:04;9.23;;;8.47;;
27728;SDS011;15126;42.186;24.340;2022-10-16T09:19:45;9.50;;;8.00;;
27728;SDS011;15126;42.186;24.340;2022-10-16T09:22:17;21.60;;;9.63;;
27728;SDS011;15126;42.186;24.340;2022-10-16T09:24:50;9.03;;;8.13;;
27728;SDS011;15126;42.186;24.340;2022-10-16T09:27:17;10.80;;;8.97;;
27728;SDS011;15126;42.186;24.340;2022-10-16T09:29:44;10.10;;;9.10;;
27728;SDS011;15126;42.186;24.340;2022-10-16T09:32:12;8.83;;;7.80;;
27728;SDS011;15126;42.186;24.340;2022-10-16T09:34:42;9.60;;;8.70;;
27728;SDS011;15126;42.186;24.340;2022-10-16T09:37:14;9.03;;;8.33;;
27728;SDS011;15126;42.186;24.340;2022-10-16T09:39:44;10.43;;;9.37;;
27728;SDS011;15126;42.186;24.340;2022-10-16T09:42:11;12.07;;;8.87;;
27728;SDS011;15126;42.186;24.340;2022-10-16T09:44:42;9.43;;;8.53;;
27728;SDS011;15126;42.186;24.340;2022-10-16T09:47:15;10.30;;;9.27;;
27728;SDS011;15126;42.186;24.340;2022-10-16T09:49:53;10.90;;;9.83;;
27728;SDS011;15126;42.186;24.340;2022-10-16T09:52:21;17.07;;;11.13;;
27728;SDS011;15126;42.186;24.340;2022-10-16T09:54:49;12.20;;;10.20;;
27728;SDS011;15126;42.186;24.340;2022-10-16T09:57:17;8.37;;;7.17;;
27728;SDS011;15126;42.186;24.340;2022-10-16T09:59:47;15.17;;;8.60;;
27728;SDS011;15126;42.186;24.340;2022-10-16T10:02:15;9.87;;;8.87;;
27728;SDS011;15126;42.186;24.340;2022-10-16T10:04:45;8.87;;;7.97;;
27728;SDS011;15126;42.186;24.340;2022-10-16T10:07:18;9.00;;;7.10;;
27728;SDS011;15126;42.186;24.340;2022-10-16T10:09:50;9.03;;;7.83;;
27728;SDS011;15126;42.186;24.340;2022-10-16T10:12:17;7.33;;;6.73;;
27728;SDS011;15126;42.186;24.340;2022-10-16T10:14:47;12.00;;;7.90;;
27728;SDS011;15126;42.186;24.340;2022-10-16T10:17:16;9.03;;;6.30;;
27728;SDS011;15126;42.186;24.340;2022-10-16T10:19:49;6.70;;;6.10;;
27728;SDS011;15126;42.186;24.340;2022-10-16T10:22:26;8.53;;;7.37;;
27728;SDS011;15126;42.186;24.340;2022-10-16T10:24:56;7.07;;;6.10;;
27728;SDS011;15126;42.186;24.340;2022-10-16T10:27:29;10.27;;;7.03;;
27728;SDS011;15126;42.186;24.340;2022-10-16T10:30:06;7.87;;;6.40;;
27728;SDS011;15126;42.186;24.340;2022-10-16T10:32:43;7.20;;;5.90;;
27728;SDS011;15126;42.186;24.340;2022-10-16T10:35:21;6.67;;;6.13;;
27728;SDS011;15126;42.186;24.340;2022-10-16T10:38:05;6.80;;;6.17;;
27728;SDS011;15126;42.186;24.340;2022-10-16T10:40:42;5.83;;;5.33;;
27728;SDS011;15126;42.186;24.340;2022-10-16T10:43:18;6.23;;;5.63;;
27728;SDS011;15126;42.186;24.340;2022-10-16T10:45:54;7.70;;;6.37;;
27728;SDS011;15126;42.186;24.340;2022-10-16T10:48:38;5.93;;;5.43;;
27728;SDS011;15126;42.186;24.340;2022-10-16T10:51:26;11.10;;;7.17;;
27728;SDS011;15126;42.186;24.340;2022-10-16T10:54:02;9.90;;;8.90;;
27728;SDS011;15126;42.186;24.340;2022-10-16T10:56:45;6.37;;;5.60;;
27728;SDS011;15126;42.186;24.340;2022-10-16T10:59:37;6.73;;;5.73;;
27728;SDS011;15126;42.186;24.340;2022-10-16T11:02:22;6.50;;;5.97;;
27728;SDS011;15126;42.186;24.340;2022-10-16T11:07:55;6.30;;;5.80;;
27728;SDS011;15126;42.186;24.340;2022-10-16T11:10:28;7.17;;;5.77;;
27728;SDS011;15126;42.186;24.340;2022-10-16T11:13:04;10.30;;;6.10;;
27728;SDS011;15126;42.186;24.340;2022-10-16T11:15:41;6.07;;;5.57;;
27728;SDS011;15126;42.186;24.340;2022-10-16T11:18:16;6.07;;;5.57;;
27728;SDS011;15126;42.186;24.340;2022-10-16T11:20:47;7.27;;;6.43;;
27728;SDS011;15126;42.186;24.340;2022-10-16T11:23:20;8.90;;;5.80;;
27728;SDS011;15126;42.186;24.340;2022-10-16T11:25:53;6.60;;;5.97;;
27728;SDS011;15126;42.186;24.340;2022-10-16T11:28:27;7.53;;;5.90;;
27728;SDS011;15126;42.186;24.340;2022-10-16T11:31:00;8.23;;;6.43;;
27728;SDS011;15126;42.186;24.340;2022-10-16T11:33:35;8.40;;;6.13;;
27728;SDS011;15126;42.186;24.340;2022-10-16T11:36:08;5.80;;;5.30;;
27728;SDS011;15126;42.186;24.340;2022-10-16T11:38:41;8.77;;;5.93;;
27728;SDS011;15126;42.186;24.340;2022-10-16T11:41:17;11.13;;;6.07;;
27728;SDS011;15126;42.186;24.340;2022-10-16T11:43:49;6.30;;;5.70;;
27728;SDS011;15126;42.186;24.340;2022-10-16T11:46:24;6.00;;;5.03;;
27728;SDS011;15126;42.186;24.340;2022-10-16T11:48:57;6.13;;;5.27;;
27728;SDS011;15126;42.186;24.340;2022-10-16T11:51:31;7.07;;;6.30;;
27728;SDS011;15126;42.186;24.340;2022-10-16T11:54:08;5.70;;;5.13;;
27728;SDS011;15126;42.186;24.340;2022-10-16T11:56:48;6.03;;;5.47;;
27728;SDS011;15126;42.186;24.340;2022-10-16T11:59:20;5.47;;;4.97;;
27728;SDS011;15126;42.186;24.340;2022-10-16T12:01:57;5.87;;;5.27;;
27728;SDS011;15126;42.186;24.340;2022-10-16T12:04:34;6.43;;;5.50;;
27728;SDS011;15126;42.186;24.340;2022-10-16T12:07:11;6.00;;;5.03;;
27728;SDS011;15126;42.186;24.340;2022-10-16T12:09:42;5.90;;;5.30;;
27728;SDS011;15126;42.186;24.340;2022-10-16T12:15:17;5.77;;;5.13;;
27728;SDS011;15126;42.186;24.340;2022-10-16T12:17:47;5.73;;;5.13;;
27728;SDS011;15126;42.186;24.340;2022-10-16T12:23:03;5.37;;;4.97;;
27728;SDS011;15126;42.186;24.340;2022-10-16T12:25:32;5.67;;;5.00;;
27728;SDS011;15126;42.186;24.340;2022-10-16T12:28:01;6.60;;;5.07;;
27728;SDS011;15126;42.186;24.340;2022-10-16T12:30:33;5.03;;;4.53;;
27728;SDS011;15126;42.186;24.340;2022-10-16T12:33:02;5.87;;;5.03;;
27728;SDS011;15126;42.186;24.340;2022-10-16T12:35:32;6.80;;;4.90;;
27728;SDS011;15126;42.186;24.340;2022-10-16T12:38:08;6.87;;;6.07;;
27728;SDS011;15126;42.186;24.340;2022-10-16T12:40:43;5.33;;;4.77;;
27728;SDS011;15126;42.186;24.340;2022-10-16T12:43:11;5.87;;;5.30;;
27728;SDS011;15126;42.186;24.340;2022-10-16T12:45:59;5.60;;;5.00;;
27728;SDS011;15126;42.186;24.340;2022-10-16T12:48:28;5.87;;;5.40;;
27728;SDS011;15126;42.186;24.340;2022-10-16T12:50:56;6.33;;;4.80;;
27728;SDS011;15126;42.186;24.340;2022-10-16T12:53:24;7.10;;;4.43;;
27728;SDS011;15126;42.186;24.340;2022-10-16T12:55:58;5.57;;;5.07;;
27728;SDS011;15126;42.186;24.340;2022-10-16T12:58:40;6.53;;;5.27;;
27728;SDS011;15126;42.186;24.340;2022-10-16T13:01:31;5.57;;;4.60;;
27728;SDS011;15126;42.186;24.340;2022-10-16T13:04:13;4.90;;;4.50;;
27728;SDS011;15126;42.186;24.340;2022-10-16T13:06:53;5.80;;;4.73;;
27728;SDS011;15126;42.186;24.340;2022-10-16T13:09:31;5.00;;;4.50;;
27728;SDS011;15126;42.186;24.340;2022-10-16T13:12:15;5.27;;;4.77;;
27728;SDS011;15126;42.186;24.340;2022-10-16T13:14:58;5.40;;;4.90;;
27728;SDS011;15126;42.186;24.340;2022-10-16T13:17:39;5.30;;;4.80;;
27728;SDS011;15126;42.186;24.340;2022-10-16T13:20:13;7.53;;;5.33;;
27728;SDS011;15126;42.186;24.340;2022-10-16T13:22:49;5.03;;;4.60;;
27728;SDS011;15126;42.186;24.340;2022-10-16T13:25:27;6.07;;;5.40;;
27728;SDS011;15126;42.186;24.340;2022-10-16T13:28:01;6.20;;;5.60;;
27728;SDS011;15126;42.186;24.340;2022-10-16T13:30:29;5.43;;;4.60;;
27728;SDS011;15126;42.186;24.340;2022-10-16T13:33:01;6.60;;;4.83;;
27728;SDS011;15126;42.186;24.340;2022-10-16T13:35:31;7.23;;;4.10;;
27728;SDS011;15126;42.186;24.340;2022-10-16T13:38:12;7.67;;;4.60;;
27728;SDS011;15126;42.186;24.340;2022-10-16T13:40:51;6.97;;;5.97;;
27728;SDS011;15126;42.186;24.340;2022-10-16T13:43:21;3.97;;;3.67;;
27728;SDS011;15126;42.186;24.340;2022-10-16T13:45:54;4.00;;;3.70;;
27728;SDS011;15126;42.186;24.340;2022-10-16T13:48:24;5.33;;;4.57;;
27728;SDS011;15126;42.186;24.340;2022-10-16T13:51:00;10.27;;;5.27;;
27728;SDS011;15126;42.186;24.340;2022-10-16T13:53:30;6.83;;;5.10;;
27728;SDS011;15126;42.186;24.340;2022-10-16T13:56:01;5.40;;;4.73;;
27728;SDS011;15126;42.186;24.340;2022-10-16T13:58:32;4.37;;;3.97;;
27728;SDS011;15126;42.186;24.340;2022-10-16T14:01:00;7.83;;;4.43;;
27728;SDS011;15126;42.186;24.340;2022-10-16T14:03:33;5.33;;;4.23;;
27728;SDS011;15126;42.186;24.340;2022-10-16T14:06:02;6.03;;;5.03;;
27728;SDS011;15126;42.186;24.340;2022-10-16T14:08:31;8.67;;;3.73;;
27728;SDS011;15126;42.186;24.340;2022-10-16T14:11:04;4.90;;;4.33;;
27728;SDS011;15126;42.186;24.340;2022-10-16T14:13:32;4.50;;;4.10;;
27728;SDS011;15126;42.186;24.340;2022-10-16T14:16:05;4.87;;;4.47;;
27728;SDS011;15126;42.186;24.340;2022-10-16T14:18:35;6.80;;;4.73;;
27728;SDS011;15126;42.186;24.340;2022-10-16T14:21:05;8.13;;;5.83;;
27728;SDS011;15126;42.186;24.340;2022-10-16T14:23:34;4.87;;;4.23;;
27728;SDS011;15126;42.186;24.340;2022-10-16T14:26:06;7.53;;;4.90;;
27728;SDS011;15126;42.186;24.340;2022-10-16T14:28:43;4.87;;;4.43;;
27728;SDS011;15126;42.186;24.340;2022-10-16T14:31:25;7.23;;;5.03;;
27728;SDS011;15126;42.186;24.340;2022-10-16T14:33:55;6.80;;;4.87;;
27728;SDS011;15126;42.186;24.340;2022-10-16T14:36:22;4.93;;;4.53;;
27728;SDS011;15126;42.186;24.340;2022-10-16T14:38:53;6.33;;;5.73;;
27728;SDS011;15126;42.186;24.340;2022-10-16T14:41:26;8.63;;;4.93;;
27728;SDS011;15126;42.186;24.340;2022-10-16T14:43:54;6.80;;;6.10;;
27728;SDS011;15126;42.186;24.340;2022-10-16T14:46:23;9.63;;;7.47;;
27728;SDS011;15126;42.186;24.340;2022-10-16T14:48:58;6.50;;;5.43;;
27728;SDS011;15126;42.186;24.340;2022-10-16T14:51:29;9.07;;;7.33;;